sensor_id;sensor_type;location;lat;lon;timestamp;temperature;humidity
22852;DHT22;11592;45.460;9.240;2022-11-15T00:00:55;9.70;99.90
22852;DHT22;11592;45.460;9.240;2022-11-15T00:03:24;9.70;99.90
22852;DHT22;11592;45.460;9.240;2022-11-15T00:05:51;9.70;99.90
22852;DHT22;11592;45.460;9.240;2022-11-15T00:08:18;9.80;99.90
22852;DHT22;11592;45.460;9.240;2022-11-15T00:10:59;9.80;99.90
22852;DHT22;11592;45.460;9.240;2022-11-15T00:13:26;9.80;99.90
22852;DHT22;11592;45.460;9.240;2022-11-15T00:15:57;9.80;99.90
22852;DHT22;11592;45.460;9.240;2022-11-15T00:18:24;9.70;99.90
22852;DHT22;11592;45.460;9.240;2022-11-15T00:20:51;9.50;99.90
22852;DHT22;11592;45.460;9.240;2022-11-15T00:23:18;9.50;99.90
22852;DHT22;11592;45.460;9.240;2022-11-15T00:25:44;9.50;99.90
22852;DHT22;11592;45.460;9.240;2022-11-15T00:28:11;9.40;99.90
22852;DHT22;11592;45.460;9.240;2022-11-15T00:30:38;9.40;99.90
22852;DHT22;11592;45.460;9.240;2022-11-15T00:33:05;9.50;99.90
22852;DHT22;11592;45.460;9.240;2022-11-15T00:35:33;9.40;99.90
22852;DHT22;11592;45.460;9.240;2022-11-15T00:38:01;9.40;99.90
22852;DHT22;11592;45.460;9.240;2022-11-15T00:40:28;9.60;99.90
22852;DHT22;11592;45.460;9.240;2022-11-15T00:42:55;9.60;99.90
22852;DHT22;11592;45.460;9.240;2022-11-15T00:45:22;9.40;99.90
22852;DHT22;11592;45.460;9.240;2022-11-15T00:47:49;9.50;99.90
22852;DHT22;11592;45.460;9.240;2022-11-15T00:50:16;9.50;99.90
22852;DHT22;11592;45.460;9.240;2022-11-15T00:52:43;9.40;99.90
22852;DHT22;11592;45.460;9.240;2022-11-15T00:55:15;9.30;99.90
22852;DHT22;11592;45.460;9.240;2022-11-15T00:57:42;9.20;99.90
22852;DHT22;11592;45.460;9.240;2022-11-15T01:00:10;9.30;99.90
22852;DHT22;11592;45.460;9.240;2022-11-15T01:02:36;9.30;99.90
22852;DHT22;11592;45.460;9.240;2022-11-15T01:05:03;9.40;99.90
22852;DHT22;11592;45.460;9.240;2022-11-15T01:07:30;9.50;99.90
22852;DHT22;11592;45.460;9.240;2022-11-15T01:09:57;9.40;99.90
22852;DHT22;11592;45.460;9.240;2022-11-15T01:12:24;9.40;99.90
22852;DHT22;11592;45.460;9.240;2022-11-15T01:14:50;9.40;99.90
22852;DHT22;11592;45.460;9.240;2022-11-15T01:17:17;9.50;99.90
22852;DHT22;11592;45.460;9.240;2022-11-15T01:19:44;9.60;99.90
22852;DHT22;11592;45.460;9.240;2022-11-15T01:22:11;9.60;99.90
22852;DHT22;11592;45.460;9.240;2022-11-15T01:24:38;9.40;99.90
22852;DHT22;11592;45.460;9.240;2022-11-15T01:27:04;9.40;99.90
22852;DHT22;11592;45.460;9.240;2022-11-15T01:29:31;9.30;99.90
22852;DHT22;11592;45.460;9.240;2022-11-15T01:31:58;9.40;99.90
22852;DHT22;11592;45.460;9.240;2022-11-15T01:34:24;9.40;99.90
22852;DHT22;11592;45.460;9.240;2022-11-15T01:36:51;9.30;99.90
22852;DHT22;11592;45.460;9.240;2022-11-15T01:39:18;9.20;99.90
22852;DHT22;11592;45.460;9.240;2022-11-15T01:41:45;9.20;99.90
22852;DHT22;11592;45.460;9.240;2022-11-15T01:46:58;9.10;99.90
22852;DHT22;11592;45.460;9.240;2022-11-15T01:49:27;9.10;99.90
22852;DHT22;11592;45.460;9.240;2022-11-15T01:51:57;9.00;99.90
22852;DHT22;11592;45.460;9.240;2022-11-15T01:54:24;8.90;99.90
22852;DHT22;11592;45.460;9.240;2022-11-15T01:56:55;9.00;99.90
22852;DHT22;11592;45.460;9.240;2022-11-15T01:59:23;8.90;99.90
22852;DHT22;11592;45.460;9.240;2022-11-15T02:01:50;9.00;99.90
22852;DHT22;11592;45.460;9.240;2022-11-15T02:04:31;9.10;99.90
22852;DHT22;11592;45.460;9.240;2022-11-15T02:06:59;9.00;99.90
22852;DHT22;11592;45.460;9.240;2022-11-15T02:09:27;9.00;99.90
22852;DHT22;11592;45.460;9.240;2022-11-15T02:11:55;9.00;99.90
22852;DHT22;11592;45.460;9.240;2022-11-15T02:14:24;9.00;99.90
22852;DHT22;11592;45.460;9.240;2022-11-15T02:39:13;9.00;99.90
22852;DHT22;11592;45.460;9.240;2022-11-15T02:42:04;9.00;99.90
22852;DHT22;11592;45.460;9.240;2022-11-15T02:44:55;9.00;99.90
22852;DHT22;11592;45.460;9.240;2022-11-15T02:47:23;9.00;99.90
22852;DHT22;11592;45.460;9.240;2022-11-15T02:49:55;8.80;99.90
22852;DHT22;11592;45.460;9.240;2022-11-15T02:52:24;8.80;99.90
22852;DHT22;11592;45.460;9.240;2022-11-15T02:54:55;9.00;99.90
22852;DHT22;11592;45.460;9.240;2022-11-15T03:00:13;9.00;99.90
22852;DHT22;11592;45.460;9.240;2022-11-15T03:05:17;9.00;99.90
22852;DHT22;11592;45.460;9.240;2022-11-15T03:16:16;9.10;99.90
22852;DHT22;11592;45.460;9.240;2022-11-15T03:19:03;9.20;99.90
22852;DHT22;11592;45.460;9.240;2022-11-15T03:21:33;9.10;99.90
22852;DHT22;11592;45.460;9.240;2022-11-15T03:24:03;9.00;99.90
22852;DHT22;11592;45.460;9.240;2022-11-15T03:26:32;9.00;99.90
22852;DHT22;11592;45.460;9.240;2022-11-15T03:29:04;9.00;99.90
22852;DHT22;11592;45.460;9.240;2022-11-15T03:31:35;9.10;99.90
22852;DHT22;11592;45.460;9.240;2022-11-15T03:34:28;9.00;99.90
22852;DHT22;11592;45.460;9.240;2022-11-15T03:36:56;9.00;99.90
22852;DHT22;11592;45.460;9.240;2022-11-15T03:39:23;9.00;99.90
22852;DHT22;11592;45.460;9.240;2022-11-15T03:42:01;9.00;99.90
22852;DHT22;11592;45.460;9.240;2022-11-15T03:44:40;9.00;99.90
22852;DHT22;11592;45.460;9.240;2022-11-15T03:47:36;9.00;99.90
22852;DHT22;11592;45.460;9.240;2022-11-15T03:50:17;9.20;99.90
22852;DHT22;11592;45.460;9.240;2022-11-15T03:52:46;9.20;99.90
22852;DHT22;11592;45.460;9.240;2022-11-15T03:55:18;9.10;99.90
22852;DHT22;11592;45.460;9.240;2022-11-15T03:57:46;9.10;99.90
22852;DHT22;11592;45.460;9.240;2022-11-15T04:00:14;9.00;99.90
22852;DHT22;11592;45.460;9.240;2022-11-15T04:02:41;8.90;99.90
22852;DHT22;11592;45.460;9.240;2022-11-15T04:05:08;9.00;99.90
22852;DHT22;11592;45.460;9.240;2022-11-15T04:07:35;9.00;99.90
22852;DHT22;11592;45.460;9.240;2022-11-15T04:10:03;9.00;99.90
22852;DHT22;11592;45.460;9.240;2022-11-15T04:12:35;9.10;99.90
22852;DHT22;11592;45.460;9.240;2022-11-15T04:15:10;9.00;99.90
22852;DHT22;11592;45.460;9.240;2022-11-15T04:17:40;9.10;99.90
22852;DHT22;11592;45.460;9.240;2022-11-15T04:20:16;9.20;99.90
22852;DHT22;11592;45.460;9.240;2022-11-15T04:23:08;9.20;99.90
22852;DHT22;11592;45.460;9.240;2022-11-15T04:25:55;9.00;99.90
22852;DHT22;11592;45.460;9.240;2022-11-15T04:28:22;8.90;99.90
22852;DHT22;11592;45.460;9.240;2022-11-15T04:30:49;8.90;99.90
22852;DHT22;11592;45.460;9.240;2022-11-15T04:33:16;9.00;99.90
22852;DHT22;11592;45.460;9.240;2022-11-15T04:35:43;9.00;99.90
22852;DHT22;11592;45.460;9.240;2022-11-15T04:38:10;9.10;99.90
22852;DHT22;11592;45.460;9.240;2022-11-15T04:40:37;9.10;99.90
22852;DHT22;11592;45.460;9.240;2022-11-15T04:43:04;9.20;99.90
22852;DHT22;11592;45.460;9.240;2022-11-15T04:45:31;9.20;99.90
22852;DHT22;11592;45.460;9.240;2022-11-15T04:47:58;9.20;99.90
22852;DHT22;11592;45.460;9.240;2022-11-15T04:50:25;9.30;99.90
22852;DHT22;11592;45.460;9.240;2022-11-15T04:52:53;9.20;99.90
22852;DHT22;11592;45.460;9.240;2022-11-15T04:55:20;9.30;99.90
22852;DHT22;11592;45.460;9.240;2022-11-15T04:57:47;9.40;99.90
22852;DHT22;11592;45.460;9.240;2022-11-15T05:00:15;9.50;99.90
22852;DHT22;11592;45.460;9.240;2022-11-15T05:02:42;9.60;99.90
22852;DHT22;11592;45.460;9.240;2022-11-15T05:05:28;9.70;99.90
22852;DHT22;11592;45.460;9.240;2022-11-15T05:07:55;9.80;99.90
22852;DHT22;11592;45.460;9.240;2022-11-15T05:10:22;9.80;99.90
22852;DHT22;11592;45.460;9.240;2022-11-15T05:12:48;9.90;99.90
22852;DHT22;11592;45.460;9.240;2022-11-15T05:15:15;9.90;99.90
22852;DHT22;11592;45.460;9.240;2022-11-15T05:17:42;9.90;99.90
22852;DHT22;11592;45.460;9.240;2022-11-15T05:20:09;9.80;99.90
22852;DHT22;11592;45.460;9.240;2022-11-15T05:22:36;9.90;99.90
22852;DHT22;11592;45.460;9.240;2022-11-15T05:25:04;9.90;99.90
22852;DHT22;11592;45.460;9.240;2022-11-15T05:27:32;9.90;99.90
22852;DHT22;11592;45.460;9.240;2022-11-15T05:29:58;9.80;99.90
22852;DHT22;11592;45.460;9.240;2022-11-15T05:32:25;9.70;99.90
22852;DHT22;11592;45.460;9.240;2022-11-15T05:34:52;9.50;99.90
22852;DHT22;11592;45.460;9.240;2022-11-15T05:37:20;9.30;99.90
22852;DHT22;11592;45.460;9.240;2022-11-15T05:39:47;9.20;99.90
22852;DHT22;11592;45.460;9.240;2022-11-15T05:42:15;9.00;99.90
22852;DHT22;11592;45.460;9.240;2022-11-15T05:44:47;8.80;99.90
22852;DHT22;11592;45.460;9.240;2022-11-15T05:47:17;8.70;99.90
22852;DHT22;11592;45.460;9.240;2022-11-15T05:49:48;8.70;99.90
22852;DHT22;11592;45.460;9.240;2022-11-15T05:52:19;8.60;99.90
22852;DHT22;11592;45.460;9.240;2022-11-15T05:54:46;8.50;99.90
22852;DHT22;11592;45.460;9.240;2022-11-15T05:57:13;8.50;99.90
22852;DHT22;11592;45.460;9.240;2022-11-15T05:59:41;8.40;99.90
22852;DHT22;11592;45.460;9.240;2022-11-15T06:02:10;8.40;99.90
22852;DHT22;11592;45.460;9.240;2022-11-15T06:04:37;8.40;99.90
22852;DHT22;11592;45.460;9.240;2022-11-15T06:07:04;8.40;99.90
22852;DHT22;11592;45.460;9.240;2022-11-15T06:09:31;8.30;99.90
22852;DHT22;11592;45.460;9.240;2022-11-15T06:11:58;8.50;99.90
22852;DHT22;11592;45.460;9.240;2022-11-15T06:14:25;8.40;99.90
22852;DHT22;11592;45.460;9.240;2022-11-15T06:16:51;8.30;99.90
22852;DHT22;11592;45.460;9.240;2022-11-15T06:19:18;8.30;99.90
22852;DHT22;11592;45.460;9.240;2022-11-15T06:21:45;8.30;99.90
22852;DHT22;11592;45.460;9.240;2022-11-15T06:24:11;8.40;99.90
22852;DHT22;11592;45.460;9.240;2022-11-15T06:26:38;8.40;99.90
22852;DHT22;11592;45.460;9.240;2022-11-15T06:29:05;8.50;99.90
22852;DHT22;11592;45.460;9.240;2022-11-15T06:31:33;8.50;99.90
22852;DHT22;11592;45.460;9.240;2022-11-15T06:34:00;8.70;99.90
22852;DHT22;11592;45.460;9.240;2022-11-15T06:36:27;8.80;99.90
22852;DHT22;11592;45.460;9.240;2022-11-15T06:38:54;8.90;99.90
22852;DHT22;11592;45.460;9.240;2022-11-15T06:41:20;9.00;99.90
22852;DHT22;11592;45.460;9.240;2022-11-15T06:43:47;9.00;99.90
22852;DHT22;11592;45.460;9.240;2022-11-15T06:46:14;9.10;99.90
22852;DHT22;11592;45.460;9.240;2022-11-15T06:48:41;9.20;99.90
22852;DHT22;11592;45.460;9.240;2022-11-15T06:51:07;9.20;99.90
22852;DHT22;11592;45.460;9.240;2022-11-15T06:53:34;9.30;99.90
22852;DHT22;11592;45.460;9.240;2022-11-15T06:56:03;9.40;99.90
22852;DHT22;11592;45.460;9.240;2022-11-15T06:58:30;9.40;99.90
22852;DHT22;11592;45.460;9.240;2022-11-15T07:01:09;9.60;99.90
22852;DHT22;11592;45.460;9.240;2022-11-15T07:03:40;9.60;99.90
22852;DHT22;11592;45.460;9.240;2022-11-15T07:06:08;9.60;99.90
22852;DHT22;11592;45.460;9.240;2022-11-15T07:08:35;9.70;99.90
22852;DHT22;11592;45.460;9.240;2022-11-15T07:11:04;9.80;99.90
22852;DHT22;11592;45.460;9.240;2022-11-15T07:13:33;9.70;99.90
22852;DHT22;11592;45.460;9.240;2022-11-15T07:16:05;9.80;99.90
22852;DHT22;11592;45.460;9.240;2022-11-15T07:18:37;9.80;99.90
22852;DHT22;11592;45.460;9.240;2022-11-15T07:21:06;9.90;99.90
22852;DHT22;11592;45.460;9.240;2022-11-15T07:23:39;10.00;99.90
22852;DHT22;11592;45.460;9.240;2022-11-15T07:26:07;10.10;99.90
22852;DHT22;11592;45.460;9.240;2022-11-15T07:28:34;10.10;99.90
22852;DHT22;11592;45.460;9.240;2022-11-15T07:31:03;10.10;99.90
22852;DHT22;11592;45.460;9.240;2022-11-15T07:33:30;10.20;99.90
22852;DHT22;11592;45.460;9.240;2022-11-15T07:36:05;10.20;99.90
22852;DHT22;11592;45.460;9.240;2022-11-15T07:38:34;10.20;99.90
22852;DHT22;11592;45.460;9.240;2022-11-15T07:41:08;10.30;99.90
22852;DHT22;11592;45.460;9.240;2022-11-15T07:43:35;10.30;99.90
22852;DHT22;11592;45.460;9.240;2022-11-15T07:46:06;10.30;99.90
22852;DHT22;11592;45.460;9.240;2022-11-15T07:48:36;10.20;99.90
22852;DHT22;11592;45.460;9.240;2022-11-15T07:51:14;10.30;99.90
22852;DHT22;11592;45.460;9.240;2022-11-15T07:53:42;10.30;99.90
22852;DHT22;11592;45.460;9.240;2022-11-15T07:56:10;10.30;99.90
22852;DHT22;11592;45.460;9.240;2022-11-15T07:58:37;10.40;99.90
22852;DHT22;11592;45.460;9.240;2022-11-15T08:01:06;10.40;99.90
22852;DHT22;11592;45.460;9.240;2022-11-15T08:03:33;10.30;99.90
22852;DHT22;11592;45.460;9.240;2022-11-15T08:06:00;10.50;99.90
22852;DHT22;11592;45.460;9.240;2022-11-15T08:08:27;10.50;99.90
22852;DHT22;11592;45.460;9.240;2022-11-15T08:10:54;10.50;99.90
22852;DHT22;11592;45.460;9.240;2022-11-15T08:13:20;10.50;99.90
22852;DHT22;11592;45.460;9.240;2022-11-15T08:15:47;10.50;99.90
22852;DHT22;11592;45.460;9.240;2022-11-15T08:18:21;10.50;99.90
22852;DHT22;11592;45.460;9.240;2022-11-15T08:20:48;10.50;99.90
22852;DHT22;11592;45.460;9.240;2022-11-15T08:23:15;10.50;99.90
22852;DHT22;11592;45.460;9.240;2022-11-15T08:25:42;10.50;99.90
22852;DHT22;11592;45.460;9.240;2022-11-15T08:28:10;10.40;99.90
22852;DHT22;11592;45.460;9.240;2022-11-15T08:30:39;10.40;99.90
22852;DHT22;11592;45.460;9.240;2022-11-15T08:33:13;10.40;99.90
22852;DHT22;11592;45.460;9.240;2022-11-15T08:35:43;10.40;99.90
22852;DHT22;11592;45.460;9.240;2022-11-15T08:38:10;10.50;99.90
22852;DHT22;11592;45.460;9.240;2022-11-15T08:40:37;10.50;99.90
22852;DHT22;11592;45.460;9.240;2022-11-15T08:43:04;10.60;99.90
22852;DHT22;11592;45.460;9.240;2022-11-15T08:45:33;10.60;99.90
22852;DHT22;11592;45.460;9.240;2022-11-15T08:48:01;10.70;99.90
22852;DHT22;11592;45.460;9.240;2022-11-15T08:50:28;10.80;99.90
22852;DHT22;11592;45.460;9.240;2022-11-15T08:52:55;10.70;99.90
22852;DHT22;11592;45.460;9.240;2022-11-15T08:55:22;10.80;99.90
22852;DHT22;11592;45.460;9.240;2022-11-15T08:57:50;10.80;99.90
22852;DHT22;11592;45.460;9.240;2022-11-15T09:00:17;10.90;99.90
22852;DHT22;11592;45.460;9.240;2022-11-15T09:02:46;11.00;99.90
22852;DHT22;11592;45.460;9.240;2022-11-15T09:05:13;11.10;99.90
22852;DHT22;11592;45.460;9.240;2022-11-15T09:07:41;11.10;99.90
22852;DHT22;11592;45.460;9.240;2022-11-15T09:10:08;11.10;99.90
22852;DHT22;11592;45.460;9.240;2022-11-15T09:12:35;11.10;99.90
22852;DHT22;11592;45.460;9.240;2022-11-15T09:15:02;11.10;99.90
22852;DHT22;11592;45.460;9.240;2022-11-15T09:17:29;10.90;99.90
22852;DHT22;11592;45.460;9.240;2022-11-15T09:19:56;10.90;99.90
22852;DHT22;11592;45.460;9.240;2022-11-15T09:22:23;11.00;99.90
22852;DHT22;11592;45.460;9.240;2022-11-15T09:24:50;11.10;99.90
22852;DHT22;11592;45.460;9.240;2022-11-15T09:27:16;11.10;99.90
22852;DHT22;11592;45.460;9.240;2022-11-15T09:29:43;10.90;99.90
22852;DHT22;11592;45.460;9.240;2022-11-15T09:32:10;10.90;99.90
22852;DHT22;11592;45.460;9.240;2022-11-15T09:34:36;10.90;99.90
22852;DHT22;11592;45.460;9.240;2022-11-15T09:37:03;10.90;99.90
22852;DHT22;11592;45.460;9.240;2022-11-15T09:39:31;10.90;99.90
22852;DHT22;11592;45.460;9.240;2022-11-15T09:50:09;11.10;99.90
22852;DHT22;11592;45.460;9.240;2022-11-15T09:52:38;11.10;99.90
22852;DHT22;11592;45.460;9.240;2022-11-15T09:55:09;11.20;99.90
22852;DHT22;11592;45.460;9.240;2022-11-15T10:00:36;11.40;99.90
22852;DHT22;11592;45.460;9.240;2022-11-15T10:03:34;11.40;99.90
22852;DHT22;11592;45.460;9.240;2022-11-15T10:06:02;11.40;99.90
22852;DHT22;11592;45.460;9.240;2022-11-15T10:11:25;11.40;99.90
22852;DHT22;11592;45.460;9.240;2022-11-15T10:19:56;11.40;99.90
22852;DHT22;11592;45.460;9.240;2022-11-15T10:25:15;11.40;99.90
22852;DHT22;11592;45.460;9.240;2022-11-15T10:27:44;11.50;99.90
22852;DHT22;11592;45.460;9.240;2022-11-15T10:30:14;11.50;99.90
22852;DHT22;11592;45.460;9.240;2022-11-15T10:32:43;11.50;99.90
22852;DHT22;11592;45.460;9.240;2022-11-15T10:35:20;11.50;99.90
22852;DHT22;11592;45.460;9.240;2022-11-15T10:37:48;11.40;99.90
22852;DHT22;11592;45.460;9.240;2022-11-15T10:40:21;11.40;99.90
22852;DHT22;11592;45.460;9.240;2022-11-15T10:42:49;11.40;99.90
22852;DHT22;11592;45.460;9.240;2022-11-15T10:45:32;11.50;99.90
22852;DHT22;11592;45.460;9.240;2022-11-15T10:48:19;11.50;99.90
22852;DHT22;11592;45.460;9.240;2022-11-15T10:50:47;11.50;99.90
22852;DHT22;11592;45.460;9.240;2022-11-15T10:53:37;11.40;99.90
22852;DHT22;11592;45.460;9.240;2022-11-15T10:56:12;11.40;99.90
22852;DHT22;11592;45.460;9.240;2022-11-15T10:58:44;11.40;99.90
22852;DHT22;11592;45.460;9.240;2022-11-15T11:01:17;11.40;99.90
22852;DHT22;11592;45.460;9.240;2022-11-15T11:04:01;11.30;99.90
22852;DHT22;11592;45.460;9.240;2022-11-15T11:06:29;11.30;99.90
22852;DHT22;11592;45.460;9.240;2022-11-15T11:09:02;11.30;99.90
22852;DHT22;11592;45.460;9.240;2022-11-15T11:11:48;11.30;99.90
22852;DHT22;11592;45.460;9.240;2022-11-15T11:14:30;11.40;99.90
22852;DHT22;11592;45.460;9.240;2022-11-15T11:25:48;11.30;99.90
22852;DHT22;11592;45.460;9.240;2022-11-15T11:28:43;11.20;99.90
22852;DHT22;11592;45.460;9.240;2022-11-15T11:34:05;11.30;99.90
22852;DHT22;11592;45.460;9.240;2022-11-15T11:36:45;11.30;99.90
22852;DHT22;11592;45.460;9.240;2022-11-15T11:44:49;11.30;99.90
22852;DHT22;11592;45.460;9.240;2022-11-15T11:47:24;11.30;99.90
22852;DHT22;11592;45.460;9.240;2022-11-15T11:53:15;11.30;99.90
22852;DHT22;11592;45.460;9.240;2022-11-15T11:55:51;11.40;99.90
22852;DHT22;11592;45.460;9.240;2022-11-15T11:58:34;11.50;99.90
22852;DHT22;11592;45.460;9.240;2022-11-15T12:01:26;11.40;99.90
22852;DHT22;11592;45.460;9.240;2022-11-15T12:03:59;11.40;99.90
22852;DHT22;11592;45.460;9.240;2022-11-15T12:17:23;11.30;99.90
22852;DHT22;11592;45.460;9.240;2022-11-15T12:19:52;11.40;99.90
22852;DHT22;11592;45.460;9.240;2022-11-15T12:22:33;11.40;99.90
22852;DHT22;11592;45.460;9.240;2022-11-15T12:28:07;11.40;99.90
22852;DHT22;11592;45.460;9.240;2022-11-15T12:30:54;11.50;99.90
22852;DHT22;11592;45.460;9.240;2022-11-15T12:33:41;11.40;99.90
22852;DHT22;11592;45.460;9.240;2022-11-15T12:41:27;11.40;99.90
22852;DHT22;11592;45.460;9.240;2022-11-15T12:43:55;11.50;99.90
22852;DHT22;11592;45.460;9.240;2022-11-15T12:59:54;11.50;99.90
22852;DHT22;11592;45.460;9.240;2022-11-15T13:02:44;11.40;99.90
22852;DHT22;11592;45.460;9.240;2022-11-15T13:20:32;11.50;99.90
22852;DHT22;11592;45.460;9.240;2022-11-15T13:26:05;11.50;99.90
22852;DHT22;11592;45.460;9.240;2022-11-15T13:28:51;11.50;99.90
22852;DHT22;11592;45.460;9.240;2022-11-15T13:31:28;11.50;99.90
22852;DHT22;11592;45.460;9.240;2022-11-15T13:34:01;11.50;99.90
22852;DHT22;11592;45.460;9.240;2022-11-15T13:36:43;11.50;99.90
22852;DHT22;11592;45.460;9.240;2022-11-15T13:39:31;11.40;99.90
22852;DHT22;11592;45.460;9.240;2022-11-15T13:41:58;11.50;99.90
22852;DHT22;11592;45.460;9.240;2022-11-15T13:44:30;11.50;99.90
22852;DHT22;11592;45.460;9.240;2022-11-15T13:47:14;11.50;99.90
22852;DHT22;11592;45.460;9.240;2022-11-15T13:49:42;11.50;99.90
22852;DHT22;11592;45.460;9.240;2022-11-15T13:52:12;11.50;99.90
22852;DHT22;11592;45.460;9.240;2022-11-15T13:55:17;11.50;99.90
22852;DHT22;11592;45.460;9.240;2022-11-15T14:03:15;11.20;99.90
22852;DHT22;11592;45.460;9.240;2022-11-15T14:05:42;11.10;99.90
22852;DHT22;11592;45.460;9.240;2022-11-15T14:08:27;11.20;99.90
22852;DHT22;11592;45.460;9.240;2022-11-15T14:11:26;11.30;99.90
22852;DHT22;11592;45.460;9.240;2022-11-15T14:16:37;11.20;99.90
22852;DHT22;11592;45.460;9.240;2022-11-15T14:19:06;11.20;99.90
22852;DHT22;11592;45.460;9.240;2022-11-15T14:21:33;11.20;99.90
22852;DHT22;11592;45.460;9.240;2022-11-15T14:24:16;11.20;99.90
22852;DHT22;11592;45.460;9.240;2022-11-15T14:26:44;11.10;99.90
22852;DHT22;11592;45.460;9.240;2022-11-15T14:29:29;11.10;99.90
22852;DHT22;11592;45.460;9.240;2022-11-15T14:32:20;11.00;99.90
22852;DHT22;11592;45.460;9.240;2022-11-15T14:34:59;11.10;99.90
22852;DHT22;11592;45.460;9.240;2022-11-15T14:37:30;11.10;99.90
22852;DHT22;11592;45.460;9.240;2022-11-15T14:40:03;11.10;99.90
22852;DHT22;11592;45.460;9.240;2022-11-15T14:42:30;11.20;99.90
22852;DHT22;11592;45.460;9.240;2022-11-15T14:44:57;11.20;99.90
22852;DHT22;11592;45.460;9.240;2022-11-15T14:47:24;11.20;99.90
22852;DHT22;11592;45.460;9.240;2022-11-15T14:49:51;11.20;99.90
22852;DHT22;11592;45.460;9.240;2022-11-15T14:52:30;11.20;99.90
22852;DHT22;11592;45.460;9.240;2022-11-15T14:55:00;11.10;99.90
22852;DHT22;11592;45.460;9.240;2022-11-15T14:57:29;11.10;99.90
22852;DHT22;11592;45.460;9.240;2022-11-15T14:59:56;11.10;99.90
22852;DHT22;11592;45.460;9.240;2022-11-15T15:02:24;11.10;99.90
22852;DHT22;11592;45.460;9.240;2022-11-15T15:04:52;11.10;99.90
22852;DHT22;11592;45.460;9.240;2022-11-15T15:07:19;11.10;99.90
22852;DHT22;11592;45.460;9.240;2022-11-15T15:09:47;11.10;99.90
22852;DHT22;11592;45.460;9.240;2022-11-15T15:12:22;11.00;99.90
22852;DHT22;11592;45.460;9.240;2022-11-15T15:14:50;11.10;99.90
22852;DHT22;11592;45.460;9.240;2022-11-15T15:17:17;11.10;99.90
22852;DHT22;11592;45.460;9.240;2022-11-15T15:19:44;11.00;99.90
22852;DHT22;11592;45.460;9.240;2022-11-15T15:22:16;11.00;99.90
22852;DHT22;11592;45.460;9.240;2022-11-15T15:24:44;11.00;99.90
22852;DHT22;11592;45.460;9.240;2022-11-15T15:27:12;11.00;99.90
22852;DHT22;11592;45.460;9.240;2022-11-15T15:29:39;11.00;99.90
22852;DHT22;11592;45.460;9.240;2022-11-15T15:32:08;11.10;99.90
22852;DHT22;11592;45.460;9.240;2022-11-15T15:34:35;11.00;99.90
22852;DHT22;11592;45.460;9.240;2022-11-15T15:37:24;11.10;99.90
22852;DHT22;11592;45.460;9.240;2022-11-15T15:39:53;11.10;99.90
22852;DHT22;11592;45.460;9.240;2022-11-15T15:42:20;11.10;99.90
22852;DHT22;11592;45.460;9.240;2022-11-15T15:44:48;11.00;99.90
22852;DHT22;11592;45.460;9.240;2022-11-15T15:47:22;11.10;99.90
22852;DHT22;11592;45.460;9.240;2022-11-15T15:49:50;11.00;99.90
22852;DHT22;11592;45.460;9.240;2022-11-15T15:52:17;10.90;99.90
22852;DHT22;11592;45.460;9.240;2022-11-15T15:54:44;11.00;99.90
22852;DHT22;11592;45.460;9.240;2022-11-15T15:57:13;11.00;99.90
22852;DHT22;11592;45.460;9.240;2022-11-15T15:59:40;11.00;99.90
22852;DHT22;11592;45.460;9.240;2022-11-15T16:02:12;11.00;99.90
22852;DHT22;11592;45.460;9.240;2022-11-15T16:04:39;11.00;99.90
22852;DHT22;11592;45.460;9.240;2022-11-15T16:07:12;11.10;99.90
22852;DHT22;11592;45.460;9.240;2022-11-15T16:09:42;11.10;99.90
22852;DHT22;11592;45.460;9.240;2022-11-15T16:12:33;11.00;99.90
22852;DHT22;11592;45.460;9.240;2022-11-15T16:15:00;11.00;99.90
22852;DHT22;11592;45.460;9.240;2022-11-15T16:17:57;11.00;99.90
22852;DHT22;11592;45.460;9.240;2022-11-15T16:20:37;11.00;99.90
22852;DHT22;11592;45.460;9.240;2022-11-15T16:23:08;11.00;99.90
22852;DHT22;11592;45.460;9.240;2022-11-15T16:25:44;11.00;99.90
22852;DHT22;11592;45.460;9.240;2022-11-15T16:28:27;11.00;99.90
22852;DHT22;11592;45.460;9.240;2022-11-15T16:33:29;10.90;99.90
22852;DHT22;11592;45.460;9.240;2022-11-15T16:35:57;10.90;99.90
22852;DHT22;11592;45.460;9.240;2022-11-15T16:38:24;11.00;99.90
22852;DHT22;11592;45.460;9.240;2022-11-15T16:40:51;10.90;99.90
22852;DHT22;11592;45.460;9.240;2022-11-15T16:43:18;10.80;99.90
22852;DHT22;11592;45.460;9.240;2022-11-15T16:45:45;10.90;99.90
22852;DHT22;11592;45.460;9.240;2022-11-15T16:48:32;10.90;99.90
22852;DHT22;11592;45.460;9.240;2022-11-15T16:51:01;10.90;99.90
22852;DHT22;11592;45.460;9.240;2022-11-15T16:53:30;10.90;99.90
22852;DHT22;11592;45.460;9.240;2022-11-15T16:55:57;10.90;99.90
22852;DHT22;11592;45.460;9.240;2022-11-15T16:58:24;10.90;99.90
22852;DHT22;11592;45.460;9.240;2022-11-15T17:00:52;10.90;99.90
22852;DHT22;11592;45.460;9.240;2022-11-15T17:03:23;10.90;99.90
22852;DHT22;11592;45.460;9.240;2022-11-15T17:05:50;11.00;99.90
22852;DHT22;11592;45.460;9.240;2022-11-15T17:08:17;11.00;99.90
22852;DHT22;11592;45.460;9.240;2022-11-15T17:10:47;11.00;99.90
22852;DHT22;11592;45.460;9.240;2022-11-15T17:13:14;11.00;99.90
22852;DHT22;11592;45.460;9.240;2022-11-15T17:15:40;10.90;99.90
22852;DHT22;11592;45.460;9.240;2022-11-15T17:18:10;10.90;99.90
22852;DHT22;11592;45.460;9.240;2022-11-15T17:20:39;10.90;99.90
22852;DHT22;11592;45.460;9.240;2022-11-15T17:23:11;10.80;99.90
22852;DHT22;11592;45.460;9.240;2022-11-15T17:25:40;10.80;99.90
22852;DHT22;11592;45.460;9.240;2022-11-15T17:28:07;10.80;99.90
22852;DHT22;11592;45.460;9.240;2022-11-15T17:30:33;10.80;99.90
22852;DHT22;11592;45.460;9.240;2022-11-15T17:33:01;10.90;99.90
22852;DHT22;11592;45.460;9.240;2022-11-15T17:35:28;10.90;99.90
22852;DHT22;11592;45.460;9.240;2022-11-15T17:37:54;11.00;99.90
22852;DHT22;11592;45.460;9.240;2022-11-15T17:40:21;11.00;99.90
22852;DHT22;11592;45.460;9.240;2022-11-15T17:42:48;11.00;99.90
22852;DHT22;11592;45.460;9.240;2022-11-15T17:45:15;11.00;99.90
22852;DHT22;11592;45.460;9.240;2022-11-15T17:47:41;11.00;99.90
22852;DHT22;11592;45.460;9.240;2022-11-15T17:50:08;10.90;99.90
22852;DHT22;11592;45.460;9.240;2022-11-15T17:52:35;10.90;99.90
22852;DHT22;11592;45.460;9.240;2022-11-15T17:55:02;10.90;99.90
22852;DHT22;11592;45.460;9.240;2022-11-15T17:57:29;10.90;99.90
22852;DHT22;11592;45.460;9.240;2022-11-15T17:59:55;10.90;99.90
22852;DHT22;11592;45.460;9.240;2022-11-15T18:02:22;10.90;99.90
22852;DHT22;11592;45.460;9.240;2022-11-15T18:04:49;10.90;99.90
22852;DHT22;11592;45.460;9.240;2022-11-15T18:07:16;10.90;99.90
22852;DHT22;11592;45.460;9.240;2022-11-15T18:09:43;10.90;99.90
22852;DHT22;11592;45.460;9.240;2022-11-15T18:12:10;10.90;99.90
22852;DHT22;11592;45.460;9.240;2022-11-15T18:14:37;10.90;99.90
22852;DHT22;11592;45.460;9.240;2022-11-15T18:17:04;11.00;99.90
22852;DHT22;11592;45.460;9.240;2022-11-15T18:19:30;11.00;99.90
22852;DHT22;11592;45.460;9.240;2022-11-15T18:21:57;10.90;99.90